首页
METAR-TAF:

METAR-TAF

机场 :

Tiree, 苏格兰

纬度: 56-30N, 经度: 006-53W, 海拔: 12米

当前天气观测

该预报发布于41分钟前的06:50 UTC
风速30节,风向西,有时为43节阵风,在西转西南西转西北之间变化
温度 6°C
湿度 87%
气压 984 hPa
能見度: 5000
小雨

METAR: EGPU 170650Z AUTO 27030G43KT 240V300 5000 -RA FEW030/// 06/04 Q0984

时间: 07:31 (07:31 UTC)

预报

该预报发布于2小时和32分钟前的04:59 UTC
预报有效从17日的 06点(UTC)到 17日的 15点(UTC)
风速25节,风向西,有时为35节阵风
能见度10公里或以上
散云层高于2500英尺
短暂存在
从 17日的 06点(UTC)到 17日的 15点(UTC)
风速32节,风向西,有时为45节阵风
能見度: 6000
多云层高于1400英尺, 积雨云.
阵雨, 阵雨, 小冰雹或雪球
几率 30% :
短暂存在
从 17日的 06点(UTC)到 17日的 15点(UTC)
能見度: 3000
大阵雨, 小冰雹或雪球

TAF: EGPU 170459Z 1706/1715 26025G35KT 9999 SCT025 TEMPO 1706/1715 27032G45KT 6000 SHRA SHRAGS BKN014CB PROB30 TEMPO 1706/1715 3000 +SHRAGS

超过4000个机场的气象观测和天气预报(METAR&TAF报告)。

可查询的气象台以黄色和红色小点在地图上表示。

将鼠标移到小点上方,可查看气象台名称。

然后点击查看天气观测和预报。

如需切换地图:点击带黑十字的绿色按钮放大地图;点击带横线的绿色按钮缩小地图;或者点击绿色箭头查看邻近地区的地图。


METAR-TAF: